Time;durP1;ratioP1;P1;durP2;ratioP2;P2;SDS_P1;SDS_P2;PMS_P1;PMS_P2;Temp;Humidity;BMP_temperature;BMP_pressure;BME280_temperature;BME280_humidity;BME280_pressure;Samples;Min_cycle;Max_cycle;Signal;HPM_P1;HPM_P2
2020/12/31 00:00:08;;;;;;;;;57.25;44.25;;;;;;;;5028228;28;8853;-83
2020/12/31 00:02:34;;;;;;;;;55.50;44.25;;;;;;;;5021538;28;8954;-83
2020/12/31 00:05:00;;;;;;;;;54.25;44.75;;;;;;;;5022669;28;8894;-84
2020/12/31 00:07:26;;;;;;;;;53.50;45.50;;;;;;;;5024339;28;8829;-84
2020/12/31 00:09:52;;;;;;;;;51.25;44.75;;;;;;;;5022383;28;8833;-83
2020/12/31 00:12:19;;;;;;;;;52.00;42.25;;;;;;;;5026238;28;8864;-83
2020/12/31 00:14:45;;;;;;;;;50.75;44.75;;;;;;;;5021865;28;8852;-83
2020/12/31 00:17:11;;;;;;;;;43.00;39.25;;;;;;;;5028453;28;8845;-86
2020/12/31 00:19:37;;;;;;;;;49.25;45.50;;;;;;;;5027916;28;8853;-85
2020/12/31 00:22:04;;;;;;;;;51.00;42.25;;;;;;;;5033123;28;8895;-84
2020/12/31 00:24:30;;;;;;;;;55.25;48.75;;;;;;;;5036477;28;8872;-84
2020/12/31 00:26:56;;;;;;;;;53.25;46.75;;;;;;;;5035659;28;8865;-85
2020/12/31 00:29:23;;;;;;;;;60.75;51.25;;;;;;;;5031575;28;8879;-84
2020/12/31 00:31:49;;;;;;;;;61.25;49.25;;;;;;;;5022790;28;8848;-88
2020/12/31 00:34:18;;;;;;;;;60.00;49.50;;;;;;;;5021046;28;8910;-87
2020/12/31 00:36:46;;;;;;;;;61.75;48.25;;;;;;;;5030254;28;8860;-85
2020/12/31 00:39:12;;;;;;;;;48.75;43.75;;;;;;;;5032846;28;8837;-85
2020/12/31 00:41:38;;;;;;;;;58.75;47.50;;;;;;;;5037220;28;8861;-86
2020/12/31 00:44:04;;;;;;;;;60.25;49.00;;;;;;;;5032814;28;8891;-88
2020/12/31 00:46:31;;;;;;;;;61.25;50.25;;;;;;;;5031312;28;8894;-87
2020/12/31 00:48:57;;;;;;;;;63.75;51.25;;;;;;;;5027377;28;8890;-85
2020/12/31 00:51:23;;;;;;;;;61.75;49.00;;;;;;;;5024774;28;8860;-85
2020/12/31 00:53:49;;;;;;;;;64.00;49.00;;;;;;;;5035157;28;8869;-86
2020/12/31 00:56:15;;;;;;;;;53.25;45.00;;;;;;;;5028272;28;8864;-85
2020/12/31 00:58:41;;;;;;;;;54.00;45.75;;;;;;;;5026243;28;8840;-87
2020/12/31 01:01:07;;;;;;;;;57.00;48.00;;;;;;;;5018153;28;8879;-85
2020/12/31 01:03:34;;;;;;;;;61.25;50.50;;;;;;;;5023863;28;8959;-85
2020/12/31 01:06:00;;;;;;;;;8.75;5.75;;;;;;;;5032749;28;8877;-86
2020/12/31 01:08:26;;;;;;;;;53.75;45.25;;;;;;;;5019193;28;8844;-88
2020/12/31 01:10:52;;;;;;;;;58.75;46.50;;;;;;;;5023392;28;8852;-86
2020/12/31 01:13:18;;;;;;;;;49.50;45.75;;;;;;;;5029959;28;8887;-86
2020/12/31 01:15:44;;;;;;;;;55.75;45.50;;;;;;;;5016351;28;8840;-84
2020/12/31 01:18:10;;;;;;;;;53.00;45.00;;;;;;;;5024873;28;8883;-84
2020/12/31 01:20:39;;;;;;;;;58.75;46.50;;;;;;;;5023248;28;8840;-84
2020/12/31 01:23:04;;;;;;;;;58.75;46.25;;;;;;;;5019087;28;8848;-85
2020/12/31 01:25:30;;;;;;;;;54.00;45.25;;;;;;;;5020757;28;8860;-84
2020/12/31 01:27:56;;;;;;;;;59.00;48.75;;;;;;;;5019758;28;8849;-85
2020/12/31 01:30:22;;;;;;;;;61.25;45.75;;;;;;;;5019752;28;8851;-84
2020/12/31 01:32:48;;;;;;;;;57.50;47.75;;;;;;;;5019289;28;8840;-84
2020/12/31 01:35:14;;;;;;;;;60.25;46.25;;;;;;;;5019282;28;8832;-85
2020/12/31 01:37:41;;;;;;;;;52.25;45.25;;;;;;;;5019331;28;8866;-84
2020/12/31 01:40:07;;;;;;;;;50.00;44.00;;;;;;;;5027039;28;8841;-84
2020/12/31 01:42:33;;;;;;;;;59.50;44.00;;;;;;;;5018504;28;8841;-82
2020/12/31 01:44:59;;;;;;;;;53.00;43.50;;;;;;;;5017843;28;8860;-82
2020/12/31 01:47:25;;;;;;;;;44.50;41.00;;;;;;;;5020338;28;8840;-82
2020/12/31 01:49:52;;;;;;;;;46.50;44.00;;;;;;;;5019771;28;8856;-83
2020/12/31 01:52:20;;;;;;;;;47.00;41.75;;;;;;;;5021509;28;8844;-84
2020/12/31 01:54:47;;;;;;;;;53.00;37.00;;;;;;;;5019560;28;8844;-85
2020/12/31 01:57:13;;;;;;;;;48.25;40.50;;;;;;;;5015706;28;8856;-84
2020/12/31 01:59:39;;;;;;;;;43.75;37.75;;;;;;;;5019451;28;8907;-84
2020/12/31 02:02:07;;;;;;;;;51.00;45.00;;;;;;;;5016241;28;8874;-80
2020/12/31 02:04:33;;;;;;;;;41.00;39.75;;;;;;;;5021804;28;8871;-83
2020/12/31 02:06:59;;;;;;;;;40.67;37.00;;;;;;;;5023172;28;8949;-83
2020/12/31 02:09:25;;;;;;;;;41.50;36.25;;;;;;;;5022127;28;8848;-81
2020/12/31 02:11:52;;;;;;;;;51.25;42.25;;;;;;;;5021674;28;8973;-81
2020/12/31 02:14:18;;;;;;;;;52.00;39.75;;;;;;;;5021636;28;8844;-83
2020/12/31 02:16:44;;;;;;;;;54.00;41.00;;;;;;;;5021787;28;8863;-85
2020/12/31 02:19:12;;;;;;;;;45.00;39.75;;;;;;;;5020201;28;8859;-84
2020/12/31 02:21:38;;;;;;;;;51.75;42.75;;;;;;;;5019327;28;8911;-84
2020/12/31 02:24:06;;;;;;;;;31.50;23.00;;;;;;;;5019174;28;8833;-85
2020/12/31 02:26:32;;;;;;;;;44.75;41.00;;;;;;;;5020439;28;8947;-84
2020/12/31 02:28:59;;;;;;;;;48.50;42.50;;;;;;;;5023319;28;8875;-85
2020/12/31 02:31:30;;;;;;;;;47.50;41.25;;;;;;;;5029779;28;8871;-86
2020/12/31 02:33:58;;;;;;;;;47.75;41.00;;;;;;;;5026632;28;8850;-89
2020/12/31 02:36:25;;;;;;;;;50.25;41.25;;;;;;;;5032381;28;8848;-88
2020/12/31 02:38:51;;;;;;;;;46.75;41.00;;;;;;;;5022588;28;8989;-89
2020/12/31 02:41:18;;;;;;;;;36.33;33.33;;;;;;;;5028738;28;8906;-87
2020/12/31 02:43:44;;;;;;;;;33.00;30.67;;;;;;;;5027609;28;8875;-83
2020/12/31 02:46:11;;;;;;;;;35.00;26.00;;;;;;;;5026979;28;8847;-84
2020/12/31 02:48:38;;;;;;;;;33.67;30.00;;;;;;;;5025330;28;8844;-82
2020/12/31 02:51:04;;;;;;;;;29.00;26.00;;;;;;;;5026003;28;8801;-84
2020/12/31 02:53:30;;;;;;;;;26.00;25.00;;;;;;;;5026443;28;8860;-84
2020/12/31 02:55:56;;;;;;;;;30.67;25.33;;;;;;;;5025021;28;9549;-81
2020/12/31 02:58:23;;;;;;;;;24.33;21.67;;;;;;;;5023069;28;8868;-84
2020/12/31 03:00:49;;;;;;;;;23.67;18.33;;;;;;;;5022895;28;8837;-84
2020/12/31 03:03:15;;;;;;;;;29.00;22.33;;;;;;;;5030482;28;8840;-80
2020/12/31 03:05:41;;;;;;;;;21.67;19.00;;;;;;;;5021589;28;8867;-83
2020/12/31 03:08:07;;;;;;;;;28.67;21.67;;;;;;;;5025653;28;8841;-84
2020/12/31 03:10:33;;;;;;;;;34.00;30.67;;;;;;;;5022799;28;8821;-85
2020/12/31 03:12:59;;;;;;;;;32.67;26.33;;;;;;;;5024212;28;8868;-85
2020/12/31 03:15:26;;;;;;;;;36.33;30.33;;;;;;;;5023227;28;8841;-83
2020/12/31 03:17:52;;;;;;;;;24.33;23.67;;;;;;;;5022340;28;8894;-83
2020/12/31 03:20:18;;;;;;;;;32.33;27.00;;;;;;;;5023985;28;8841;-83
2020/12/31 03:22:44;;;;;;;;;33.67;28.33;;;;;;;;5021203;28;8829;-84
2020/12/31 03:25:10;;;;;;;;;36.67;29.33;;;;;;;;5025498;28;8926;-83
2020/12/31 03:27:36;;;;;;;;;32.67;29.00;;;;;;;;5020972;28;9588;-83
2020/12/31 03:30:03;;;;;;;;;35.50;33.00;;;;;;;;5022426;28;8872;-83
2020/12/31 03:32:30;;;;;;;;;42.50;32.50;;;;;;;;5023320;28;8851;-82
2020/12/31 03:34:56;;;;;;;;;39.25;33.50;;;;;;;;5022676;28;8840;-81
2020/12/31 03:37:23;;;;;;;;;41.75;34.75;;;;;;;;5025405;28;8853;-82
2020/12/31 03:39:49;;;;;;;;;55.75;39.25;;;;;;;;5033896;28;8832;-83
2020/12/31 03:42:15;;;;;;;;;37.25;31.50;;;;;;;;5035243;28;8934;-81
2020/12/31 03:44:42;;;;;;;;;45.00;37.00;;;;;;;;5021458;28;8874;-85
2020/12/31 03:47:08;;;;;;;;;41.00;32.00;;;;;;;;5021681;28;8844;-81
2020/12/31 03:49:44;;;;;;;;;45.25;38.50;;;;;;;;5022517;28;8845;-81
2020/12/31 03:52:12;;;;;;;;;37.25;33.00;;;;;;;;5026438;28;8848;-85
2020/12/31 03:54:38;;;;;;;;;37.75;32.50;;;;;;;;5024388;28;8825;-84
2020/12/31 03:57:07;;;;;;;;;46.00;38.50;;;;;;;;5029782;28;8890;-84
2020/12/31 03:59:37;;;;;;;;;49.25;39.50;;;;;;;;5022366;28;8864;-82
2020/12/31 04:02:03;;;;;;;;;49.75;40.00;;;;;;;;5024758;28;8921;-82
2020/12/31 04:04:29;;;;;;;;;31.25;28.50;;;;;;;;5020807;28;8836;-83
2020/12/31 04:06:56;;;;;;;;;28.50;22.25;;;;;;;;5022170;28;9611;-82
2020/12/31 04:09:22;;;;;;;;;36.00;27.50;;;;;;;;5023233;28;8848;-81
2020/12/31 04:11:48;;;;;;;;;41.75;35.00;;;;;;;;5020067;28;8852;-80
2020/12/31 04:14:14;;;;;;;;;36.00;32.75;;;;;;;;5024174;28;8848;-79
2020/12/31 04:16:40;;;;;;;;;31.00;31.00;;;;;;;;5023160;28;8845;-79
2020/12/31 04:19:06;;;;;;;;;35.00;32.00;;;;;;;;5020809;28;8875;-79
2020/12/31 04:21:37;;;;;;;;;42.75;35.75;;;;;;;;5022280;28;8868;-80
2020/12/31 04:24:03;;;;;;;;;25.50;21.25;;;;;;;;5021031;28;8883;-80
2020/12/31 04:26:29;;;;;;;;;39.50;33.50;;;;;;;;5021699;28;8844;-79
2020/12/31 04:28:58;;;;;;;;;33.50;27.25;;;;;;;;5023124;28;8926;-80
2020/12/31 04:31:24;;;;;;;;;40.75;35.00;;;;;;;;5018946;28;8855;-80
2020/12/31 04:33:50;;;;;;;;;39.25;30.25;;;;;;;;5022143;28;9608;-82
2020/12/31 04:36:17;;;;;;;;;33.25;28.75;;;;;;;;5020077;28;8844;-81
2020/12/31 04:38:43;;;;;;;;;34.50;32.25;;;;;;;;5022871;28;8864;-81
2020/12/31 04:41:12;;;;;;;;;38.00;29.33;;;;;;;;5023354;28;8863;-86
2020/12/31 04:43:38;;;;;;;;;39.50;30.75;;;;;;;;5018771;28;8863;-80
2020/12/31 04:46:05;;;;;;;;;33.75;29.50;;;;;;;;5020426;28;8869;-79
2020/12/31 04:48:40;;;;;;;;;32.00;31.00;;;;;;;;5019232;28;8848;-78
2020/12/31 04:51:07;;;;;;;;;32.75;27.75;;;;;;;;5022426;28;8966;-78
2020/12/31 04:53:33;;;;;;;;;31.33;28.00;;;;;;;;5020128;28;8915;-77
2020/12/31 04:56:01;;;;;;;;;37.00;30.50;;;;;;;;5023141;28;8832;-77
2020/12/31 04:58:28;;;;;;;;;39.50;33.75;;;;;;;;5020667;28;8867;-80
2020/12/31 05:00:54;;;;;;;;;40.50;35.00;;;;;;;;5021363;28;8914;-79
2020/12/31 05:03:20;;;;;;;;;41.00;32.25;;;;;;;;5019662;28;8949;-76
2020/12/31 05:05:46;;;;;;;;;38.00;29.75;;;;;;;;5022126;28;8856;-77
2020/12/31 05:08:16;;;;;;;;;53.75;40.25;;;;;;;;5019114;28;8874;-76
2020/12/31 05:10:42;;;;;;;;;38.00;31.00;;;;;;;;5014916;28;8898;-76
2020/12/31 05:13:08;;;;;;;;;39.50;32.75;;;;;;;;5022039;28;8849;-79
2020/12/31 05:15:36;;;;;;;;;46.75;41.50;;;;;;;;5020934;28;8842;-80
2020/12/31 05:18:16;;;;;;;;;41.25;34.75;;;;;;;;5023092;28;8863;-81
2020/12/31 05:20:43;;;;;;;;;40.25;35.00;;;;;;;;5015762;28;8843;-79
2020/12/31 05:23:09;;;;;;;;;43.50;33.50;;;;;;;;5019245;28;8858;-80
2020/12/31 05:25:35;;;;;;;;;38.50;33.50;;;;;;;;5019150;28;8833;-79
2020/12/31 05:28:01;;;;;;;;;43.50;35.50;;;;;;;;5025216;28;8849;-79
2020/12/31 05:30:28;;;;;;;;;36.25;31.50;;;;;;;;5020621;28;9565;-80
2020/12/31 05:33:03;;;;;;;;;37.50;33.25;;;;;;;;5019837;28;8844;-80
2020/12/31 05:35:29;;;;;;;;;41.25;34.75;;;;;;;;5020275;28;9569;-79
2020/12/31 05:37:55;;;;;;;;;39.00;31.00;;;;;;;;5019647;28;8847;-80
2020/12/31 05:40:21;;;;;;;;;40.00;33.00;;;;;;;;5017745;28;9581;-79
2020/12/31 05:42:47;;;;;;;;;36.25;34.75;;;;;;;;5021637;28;8852;-79
2020/12/31 05:45:14;;;;;;;;;35.50;32.75;;;;;;;;5018517;28;8836;-80
2020/12/31 05:47:49;;;;;;;;;30.00;29.25;;;;;;;;5021594;28;8840;-79
2020/12/31 05:50:20;;;;;;;;;40.25;30.75;;;;;;;;5011015;28;8829;-81
2020/12/31 05:52:47;;;;;;;;;51.00;37.00;;;;;;;;5019373;28;8848;-78
2020/12/31 05:55:15;;;;;;;;;21.50;20.75;;;;;;;;5018419;28;8864;-78
2020/12/31 05:57:42;;;;;;;;;49.50;35.75;;;;;;;;5021471;28;8883;-78
2020/12/31 06:00:09;;;;;;;;;38.00;34.67;;;;;;;;5018658;28;8905;-80
2020/12/31 06:02:37;;;;;;;;;20.67;18.00;;;;;;;;5020933;28;8852;-80
2020/12/31 06:05:08;;;;;;;;;23.00;19.00;;;;;;;;5019504;28;8872;-80
2020/12/31 06:07:40;;;;;;;;;28.00;27.33;;;;;;;;5021127;28;8844;-82
2020/12/31 06:10:07;;;;;;;;;27.67;21.67;;;;;;;;5019243;28;9634;-81
2020/12/31 06:12:41;;;;;;;;;26.67;23.67;;;;;;;;5020539;28;8968;-78
2020/12/31 06:15:08;;;;;;;;;33.33;25.00;;;;;;;;5018763;28;8943;-78
2020/12/31 06:17:41;;;;;;;;;24.67;23.67;;;;;;;;5020684;28;8851;-79
2020/12/31 06:20:12;;;;;;;;;21.67;21.33;;;;;;;;5018785;28;8863;-80
2020/12/31 06:22:47;;;;;;;;;27.33;21.67;;;;;;;;5020918;28;8837;-80
2020/12/31 06:25:22;;;;;;;;;25.67;23.00;;;;;;;;5010303;28;9545;-79
2020/12/31 06:27:52;;;;;;;;;27.00;23.00;;;;;;;;5010747;28;8937;-79
2020/12/31 06:30:20;;;;;;;;;27.33;25.33;;;;;;;;5018484;28;8991;-79
2020/12/31 06:32:46;;;;;;;;;27.33;22.67;;;;;;;;5021080;28;8837;-78
2020/12/31 06:35:16;;;;;;;;;32.00;25.50;;;;;;;;5021756;28;8860;-79
2020/12/31 06:37:55;;;;;;;;;34.25;28.75;;;;;;;;5013873;28;8840;-79
2020/12/31 06:40:21;;;;;;;;;24.50;23.75;;;;;;;;5016263;28;8864;-82
2020/12/31 06:43:04;;;;;;;;;31.67;25.00;;;;;;;;5021665;28;8821;-81
2020/12/31 06:45:34;;;;;;;;;15.33;12.33;;;;;;;;5019849;28;8848;-80
2020/12/31 06:48:00;;;;;;;;;25.00;22.67;;;;;;;;5019699;28;8845;-81
2020/12/31 06:50:40;;;;;;;;;29.33;25.67;;;;;;;;5018396;28;8857;-81
2020/12/31 06:53:26;;;;;;;;;35.67;29.00;;;;;;;;5020747;28;8896;-80
2020/12/31 06:55:52;;;;;;;;;28.67;25.67;;;;;;;;5016252;28;8860;-80
2020/12/31 06:58:21;;;;;;;;;27.67;22.00;;;;;;;;5017408;28;8878;-79
2020/12/31 07:00:47;;;;;;;;;18.67;18.00;;;;;;;;5021063;28;8832;-79
2020/12/31 07:03:13;;;;;;;;;25.00;21.33;;;;;;;;5025310;28;8848;-79
2020/12/31 07:05:39;;;;;;;;;26.00;21.67;;;;;;;;5030523;28;8825;-78
2020/12/31 20:04:25;;;;;;;;;33.75;29.00;;;;;;;;5108125;27;13417;-74
2020/12/31 20:06:51;;;;;;;;;20.33;18.33;;;;;;;;5097723;28;9686;-73
2020/12/31 20:09:16;;;;;;;;;22.33;22.00;;;;;;;;5094628;28;8847;-73
2020/12/31 20:11:42;;;;;;;;;20.00;19.67;;;;;;;;5096367;28;8843;-72
2020/12/31 20:14:08;;;;;;;;;20.00;17.00;;;;;;;;5096538;28;8832;-73
2020/12/31 20:16:34;;;;;;;;;16.33;16.33;;;;;;;;5101109;28;8914;-73
2020/12/31 20:19:03;;;;;;;;;14.67;11.00;;;;;;;;5093205;28;8924;-75
2020/12/31 20:21:30;;;;;;;;;13.67;11.33;;;;;;;;5093365;28;8973;-74
2020/12/31 20:23:56;;;;;;;;;14.00;11.00;;;;;;;;5098070;28;8811;-72
2020/12/31 20:26:22;;;;;;;;;15.00;13.00;;;;;;;;5097033;28;8943;-74
2020/12/31 20:28:48;;;;;;;;;11.00;11.00;;;;;;;;5095193;28;8882;-70
2020/12/31 20:31:13;;;;;;;;;24.00;22.67;;;;;;;;5096009;28;8854;-70
2020/12/31 20:33:39;;;;;;;;;21.33;16.67;;;;;;;;5096855;28;8884;-71
2020/12/31 20:36:06;;;;;;;;;27.33;19.33;;;;;;;;5095170;28;8863;-71
2020/12/31 20:38:32;;;;;;;;;27.00;24.00;;;;;;;;5096371;28;8936;-70
2020/12/31 20:40:58;;;;;;;;;35.00;32.00;;;;;;;;5093938;28;8845;-69
2020/12/31 20:43:24;;;;;;;;;30.67;27.67;;;;;;;;5096802;28;8824;-70
2020/12/31 20:45:50;;;;;;;;;29.67;24.00;;;;;;;;5094196;28;8869;-70
2020/12/31 20:48:16;;;;;;;;;32.00;27.67;;;;;;;;5095537;28;9044;-70
2020/12/31 20:50:42;;;;;;;;;56.00;43.67;;;;;;;;5095014;28;8840;-71
2020/12/31 20:53:08;;;;;;;;;26.00;24.67;;;;;;;;5093369;28;8850;-70
2020/12/31 20:55:35;;;;;;;;;23.67;16.00;;;;;;;;5094101;28;8840;-70
2020/12/31 20:58:01;;;;;;;;;19.67;17.00;;;;;;;;5094139;28;8937;-70
2020/12/31 21:00:27;;;;;;;;;15.67;14.33;;;;;;;;5096185;28;8836;-71
2020/12/31 21:02:52;;;;;;;;;15.33;14.67;;;;;;;;5093628;28;8946;-71
2020/12/31 21:05:18;;;;;;;;;11.00;10.00;;;;;;;;5096712;28;8838;-70
2020/12/31 21:07:44;;;;;;;;;11.67;11.67;;;;;;;;5095832;28;8887;-70
2020/12/31 21:10:10;;;;;;;;;14.33;14.00;;;;;;;;5093796;28;8858;-72
2020/12/31 21:12:37;;;;;;;;;14.67;13.33;;;;;;;;5094724;28;8950;-70
2020/12/31 21:15:04;;;;;;;;;17.33;14.00;;;;;;;;5067558;28;10318;-70
2020/12/31 21:17:30;;;;;;;;;13.33;13.33;;;;;;;;5062732;28;8831;-70
2020/12/31 21:19:56;;;;;;;;;11.00;11.00;;;;;;;;5059844;28;8849;-71
2020/12/31 21:22:21;;;;;;;;;12.00;11.33;;;;;;;;5061952;28;8862;-70
2020/12/31 21:24:49;;;;;;;;;15.33;14.00;;;;;;;;5060195;28;8825;-70
2020/12/31 21:27:15;;;;;;;;;16.00;15.00;;;;;;;;5061382;28;8873;-70
2020/12/31 21:29:41;;;;;;;;;15.00;14.00;;;;;;;;5062887;28;8834;-70
2020/12/31 21:32:07;;;;;;;;;14.33;14.33;;;;;;;;5061941;28;8889;-69
2020/12/31 21:34:33;;;;;;;;;15.33;15.00;;;;;;;;5060582;28;8838;-70
2020/12/31 21:36:59;;;;;;;;;15.00;14.00;;;;;;;;5066685;28;8823;-74
2020/12/31 21:39:25;;;;;;;;;15.33;12.67;;;;;;;;5063966;28;8821;-74
2020/12/31 21:41:51;;;;;;;;;21.67;18.67;;;;;;;;5066519;28;8927;-73
2020/12/31 21:44:17;;;;;;;;;15.67;15.67;;;;;;;;5065665;28;8949;-74
2020/12/31 21:46:44;;;;;;;;;135.75;122.00;;;;;;;;5060102;28;8865;-73
2020/12/31 21:49:14;;;;;;;;;73.00;58.25;;;;;;;;5061776;28;8826;-73
2020/12/31 21:51:40;;;;;;;;;37.00;31.33;;;;;;;;5060700;28;8951;-72
2020/12/31 21:54:06;;;;;;;;;27.33;25.00;;;;;;;;5064781;28;8850;-71
2020/12/31 21:56:32;;;;;;;;;30.67;21.67;;;;;;;;5059663;28;8969;-72
2020/12/31 21:58:58;;;;;;;;;17.00;15.33;;;;;;;;5058931;28;8837;-72
2020/12/31 22:01:24;;;;;;;;;22.33;20.33;;;;;;;;5061462;28;8989;-71
2020/12/31 22:03:51;;;;;;;;;19.00;17.00;;;;;;;;5061495;28;8913;-72
2020/12/31 22:06:17;;;;;;;;;66.50;52.75;;;;;;;;5058505;28;9078;-72
2020/12/31 22:08:43;;;;;;;;;41.00;36.00;;;;;;;;5062573;28;8839;-71
2020/12/31 22:11:10;;;;;;;;;33.67;32.33;;;;;;;;5063662;28;8985;-72
2020/12/31 22:13:36;;;;;;;;;29.67;25.00;;;;;;;;5061590;28;8883;-80
2020/12/31 22:16:02;;;;;;;;;33.33;31.33;;;;;;;;5067506;28;8847;-82
2020/12/31 22:18:28;;;;;;;;;42.25;35.50;;;;;;;;5068333;28;8854;-73
2020/12/31 22:21:24;;;;;;;;;66.50;53.50;;;;;;;;5091834;28;13546;-69
2020/12/31 22:23:50;;;;;;;;;69.75;51.00;;;;;;;;5078440;28;8973;-73
2020/12/31 22:26:15;;;;;;;;;69.25;54.50;;;;;;;;5076677;28;8859;-73
2020/12/31 22:28:41;;;;;;;;;72.00;57.00;;;;;;;;5074363;28;9001;-73
2020/12/31 22:31:07;;;;;;;;;70.00;56.00;;;;;;;;5070833;28;8887;-74
2020/12/31 22:33:33;;;;;;;;;66.25;50.50;;;;;;;;5075819;28;8873;-73
2020/12/31 22:35:59;;;;;;;;;62.25;50.25;;;;;;;;5074609;28;8881;-73
2020/12/31 22:38:26;;;;;;;;;70.75;53.75;;;;;;;;5073701;28;8975;-73
2020/12/31 22:40:52;;;;;;;;;66.00;52.25;;;;;;;;5073993;28;8835;-71
2020/12/31 22:43:18;;;;;;;;;65.50;54.00;;;;;;;;5076420;28;8958;-69
2020/12/31 22:45:44;;;;;;;;;63.00;49.25;;;;;;;;5076793;28;8927;-71
2020/12/31 22:48:10;;;;;;;;;66.75;53.25;;;;;;;;5077118;28;8951;-70
2020/12/31 22:50:36;;;;;;;;;67.25;53.50;;;;;;;;5076352;28;8880;-71
2020/12/31 22:53:02;;;;;;;;;62.25;50.75;;;;;;;;5077295;28;8847;-71
2020/12/31 22:55:28;;;;;;;;;71.00;55.25;;;;;;;;5076982;28;8833;-70
2020/12/31 22:57:55;;;;;;;;;92.50;75.25;;;;;;;;5078308;28;8815;-73
2020/12/31 23:00:21;;;;;;;;;79.25;63.00;;;;;;;;5073240;28;8813;-73
2020/12/31 23:02:47;;;;;;;;;72.75;55.50;;;;;;;;5061925;28;10343;-74
2020/12/31 23:05:13;;;;;;;;;88.00;75.75;;;;;;;;5044334;28;10499;-74
2020/12/31 23:07:40;;;;;;;;;143.50;127.25;;;;;;;;5032672;28;11485;-74
2020/12/31 23:10:07;;;;;;;;;71.00;52.75;;;;;;;;5036142;28;8841;-73
2020/12/31 23:12:34;;;;;;;;;86.25;67.00;;;;;;;;5037374;28;8864;-73
2020/12/31 23:15:00;;;;;;;;;79.75;61.50;;;;;;;;5035100;28;9695;-73
2020/12/31 23:17:26;;;;;;;;;85.00;66.00;;;;;;;;5038167;28;8873;-80
2020/12/31 23:19:52;;;;;;;;;101.00;88.50;;;;;;;;5041435;28;11192;-73
2020/12/31 23:22:17;;;;;;;;;86.00;70.00;;;;;;;;5065850;28;8841;-74
2020/12/31 23:24:43;;;;;;;;;113.50;102.50;;;;;;;;5066157;28;9322;-73
2020/12/31 23:27:09;;;;;;;;;83.50;63.50;;;;;;;;5065794;28;8849;-74
2020/12/31 23:29:36;;;;;;;;;79.25;64.00;;;;;;;;5066356;28;8922;-74
2020/12/31 23:32:02;;;;;;;;;90.75;72.75;;;;;;;;5056413;28;8953;-74
2020/12/31 23:34:28;;;;;;;;;96.00;80.25;;;;;;;;5051269;28;8865;-73
2020/12/31 23:36:56;;;;;;;;;89.25;72.00;;;;;;;;5050039;28;8899;-75
2020/12/31 23:39:21;;;;;;;;;80.75;59.00;;;;;;;;5047990;28;8841;-73
2020/12/31 23:41:48;;;;;;;;;93.50;73.50;;;;;;;;5050356;28;8900;-73
2020/12/31 23:44:14;;;;;;;;;98.00;89.00;;;;;;;;5050497;28;8979;-78
2020/12/31 23:46:42;;;;;;;;;97.75;84.75;;;;;;;;5051585;28;8857;-74
2020/12/31 23:49:09;;;;;;;;;116.25;100.00;;;;;;;;5050839;28;8861;-77
2020/12/31 23:51:38;;;;;;;;;114.75;99.00;;;;;;;;5052589;28;8943;-76
2020/12/31 23:54:05;;;;;;;;;119.50;101.25;;;;;;;;5052651;28;8846;-77
2020/12/31 23:56:34;;;;;;;;;99.25;86.25;;;;;;;;5052371;28;8849;-77
2020/12/31 23:59:00;;;;;;;;;86.75;66.75;;;;;;;;5052537;28;8944;-76
